Time;durP1;ratioP1;P1;durP2;ratioP2;P2;SDS_P1;SDS_P2;PMS_P1;PMS_P2;Temp;Humidity;BMP_temperature;BMP_pressure;BME280_temperature;BME280_humidity;BME280_pressure;Samples;Min_cycle;Max_cycle;Signal;HPM_P1;HPM_P2
2023/06/25 00:00:45;;;;;;;0.73;0.73;;;;;;;18.07;nan;100993.06;4974140;28;20214;-90
2023/06/25 00:03:15;;;;;;;0.97;0.40;;;;;;;18.02;nan;100996.09;4973868;28;20652;-90
2023/06/25 00:05:40;;;;;;;0.00;0.00;;;;;;;17.97;nan;100995.53;4974051;28;20699;-89
2023/06/25 00:08:08;;;;;;;0.10;0.10;;;;;;;17.99;nan;100998.75;4974193;28;20194;-90
2023/06/25 00:10:37;;;;;;;0.00;0.00;;;;;;;18.07;nan;101001.38;4973941;28;20216;-90
2023/06/25 00:13:02;;;;;;;1.50;0.40;;;;;;;18.13;nan;100991.69;4973679;28;20735;-90
2023/06/25 00:15:28;;;;;;;0.33;0.27;;;;;;;18.08;nan;100991.97;4970997;28;20363;-90
2023/06/25 00:17:54;;;;;;;0.17;0.17;;;;;;;18.09;nan;100999.09;4987388;28;20192;-90
2023/06/25 00:20:26;;;;;;;0.30;0.30;;;;;;;18.00;nan;100992.06;4973544;28;20687;-90
2023/06/25 00:22:53;;;;;;;0.20;0.20;;;;;;;17.83;nan;100993.13;4971422;28;20334;-90
2023/06/25 00:25:19;;;;;;;0.70;0.70;;;;;;;17.68;nan;100991.88;4974012;28;20185;-90
2023/06/25 00:27:47;;;;;;;0.67;0.67;;;;;;;17.61;nan;100988.03;4982108;28;20280;-89
2023/06/25 00:30:17;;;;;;;0.10;0.10;;;;;;;17.39;nan;100986.53;4973547;28;20292;-91
2023/06/25 00:32:46;;;;;;;0.20;0.20;;;;;;;17.23;nan;100984.44;4973633;28;20221;-90
2023/06/25 00:35:15;;;;;;;0.00;0.00;;;;;;;17.33;nan;100991.47;4973669;28;20190;-91
2023/06/25 00:37:41;;;;;;;0.00;0.00;;;;;;;17.51;nan;100992.06;4970557;28;20199;-90
2023/06/25 00:40:10;;;;;;;0.00;0.00;;;;;;;17.63;nan;100989.28;4988813;28;20711;-90
2023/06/25 00:42:56;;;;;;;0.00;0.00;;;;;;;17.79;nan;100993.03;4970392;28;20190;-90
2023/06/25 00:45:24;;;;;;;0.20;0.20;;;;;;;17.53;nan;100981.47;4966767;28;20557;-89
2023/06/25 00:47:53;;;;;;;0.00;0.00;;;;;;;17.52;nan;100985.41;4973846;28;20344;-90
2023/06/25 00:50:25;;;;;;;1.07;0.97;;;;;;;17.45;nan;100982.38;4973489;28;20214;-90
2023/06/25 00:52:51;;;;;;;0.17;0.17;;;;;;;17.45;nan;100980.44;4973161;28;20186;-90
2023/06/25 00:55:27;;;;;;;0.10;0.10;;;;;;;17.44;nan;100969.72;4973913;28;20205;-90
2023/06/25 00:57:55;;;;;;;0.73;0.73;;;;;;;17.47;nan;100980.09;4973388;28;20198;-90
2023/06/25 01:00:24;;;;;;;0.00;0.00;;;;;;;17.49;nan;100980.53;4972230;28;20224;-90
2023/06/25 01:03:03;;;;;;;0.00;0.00;;;;;;;17.50;nan;100973.88;4970365;28;20190;-91
2023/06/25 01:06:04;;;;;;;0.20;0.20;;;;;;;17.62;nan;100973.88;4973106;28;20189;-90
2023/06/25 01:08:30;;;;;;;0.00;0.00;;;;;;;17.51;nan;100969.97;4966728;28;20722;-89
2023/06/25 01:11:02;;;;;;;0.00;0.00;;;;;;;17.49;nan;100969.50;4973188;28;20212;-89
2023/06/25 01:13:30;;;;;;;0.07;0.07;;;;;;;17.48;nan;100965.13;4969873;28;20194;-91
2023/06/25 01:15:58;;;;;;;0.00;0.00;;;;;;;17.56;nan;100966.97;4968651;28;20198;-90
2023/06/25 01:18:29;;;;;;;0.00;0.00;;;;;;;17.48;nan;100965.13;4972283;28;20189;-88
2023/06/25 01:20:58;;;;;;;0.00;0.00;;;;;;;17.39;nan;100968.00;4972624;28;20217;-90
2023/06/25 01:23:29;;;;;;;0.00;0.00;;;;;;;17.32;nan;100966.94;4972740;28;20185;-90
2023/06/25 01:25:55;;;;;;;0.00;0.00;;;;;;;17.24;nan;100966.72;4970533;28;20248;-90
2023/06/25 01:28:20;;;;;;;0.00;0.00;;;;;;;17.18;nan;100957.03;4980565;28;20177;-89
2023/06/25 01:30:51;;;;;;;0.00;0.00;;;;;;;17.17;nan;100955.44;4972277;28;20587;-89
2023/06/25 01:33:25;;;;;;;0.00;0.00;;;;;;;17.15;nan;100956.94;4965208;28;20196;-90
2023/06/25 01:35:53;;;;;;;1.03;1.03;;;;;;;17.10;nan;100949.69;4981313;28;20607;-90
2023/06/25 01:38:28;;;;;;;0.10;0.10;;;;;;;17.07;nan;100958.66;4971769;28;20186;-90
2023/06/25 01:40:53;;;;;;;0.20;0.20;;;;;;;17.05;nan;100960.13;4987466;28;20216;-90
2023/06/25 01:43:18;;;;;;;0.37;0.37;;;;;;;17.02;nan;100945.06;4974247;28;20198;-90
2023/06/25 01:45:55;;;;;;;0.00;0.00;;;;;;;17.11;nan;100950.50;4972318;28;20657;-90
2023/06/25 01:48:21;;;;;;;0.00;0.00;;;;;;;17.15;nan;100952.22;4969473;28;20190;-90
2023/06/25 01:50:48;;;;;;;0.30;0.30;;;;;;;17.12;nan;100952.09;4985041;28;20208;-90
2023/06/25 01:53:14;;;;;;;0.10;0.10;;;;;;;17.07;nan;100939.34;4980974;28;20281;-90
2023/06/25 01:55:39;;;;;;;1.43;0.50;;;;;;;17.08;nan;100940.13;4972192;28;20257;-90
2023/06/25 01:58:12;;;;;;;0.00;0.00;;;;;;;17.11;nan;100951.28;4971851;28;20189;-90
2023/06/25 02:00:40;;;;;;;7.10;2.00;;;;;;;17.19;nan;100947.59;4971594;28;20213;-90
2023/06/25 02:03:08;;;;;;;0.10;0.10;;;;;;;17.14;nan;100947.84;4971410;28;20193;-91
2023/06/25 02:05:37;;;;;;;0.10;0.10;;;;;;;17.04;nan;100931.72;4971481;28;20648;-90
2023/06/25 02:08:03;;;;;;;0.00;0.00;;;;;;;17.02;nan;100931.25;4971814;28;20280;-90
2023/06/25 02:10:28;;;;;;;0.00;0.00;;;;;;;17.07;nan;100933.81;4971508;28;20316;-90
2023/06/25 02:12:54;;;;;;;0.00;0.00;;;;;;;16.99;nan;100926.41;4969920;28;20261;-90
2023/06/25 02:15:22;;;;;;;0.00;0.00;;;;;;;16.93;nan;100936.09;4973224;28;20182;-89
2023/06/25 02:17:47;;;;;;;0.07;0.07;;;;;;;16.81;nan;100930.53;4971804;28;20244;-90
2023/06/25 02:20:14;;;;;;;0.00;0.00;;;;;;;16.76;nan;100936.25;4971617;28;20210;-90
2023/06/25 02:22:40;;;;;;;0.20;0.20;;;;;;;16.69;nan;100925.78;4971810;28;20189;-90
2023/06/25 02:25:06;;;;;;;0.00;0.00;;;;;;;16.72;nan;100921.53;4971435;28;20260;-90
2023/06/25 02:27:31;;;;;;;0.23;0.23;;;;;;;16.83;nan;100918.00;4968899;28;20186;-90
2023/06/25 02:30:00;;;;;;;0.00;0.00;;;;;;;16.85;nan;100918.47;4970841;28;20201;-90
2023/06/25 02:32:25;;;;;;;0.03;0.03;;;;;;;16.79;nan;100916.28;4971759;28;20213;-89
2023/06/25 02:34:53;;;;;;;0.00;0.00;;;;;;;16.76;nan;100920.50;4979735;28;20739;-90
2023/06/25 02:37:18;;;;;;;0.87;0.87;;;;;;;16.58;nan;100919.03;4971686;28;20786;-90
2023/06/25 02:39:47;;;;;;;0.00;0.00;;;;;;;16.52;nan;100921.22;4971182;28;20217;-90
2023/06/25 02:42:12;;;;;;;0.00;0.00;;;;;;;16.54;nan;100918.94;4963847;28;20213;-90
2023/06/25 02:44:38;;;;;;;0.10;0.10;;;;;;;16.51;nan;100918.81;4968352;28;20222;-89
2023/06/25 02:47:03;;;;;;;0.07;0.07;;;;;;;16.57;nan;100921.00;4969371;28;20197;-90
2023/06/25 02:49:29;;;;;;;0.00;0.00;;;;;;;16.54;nan;100920.88;4971513;28;20264;-90
2023/06/25 02:51:54;;;;;;;0.10;0.10;;;;;;;16.53;nan;100916.50;4979562;28;20196;-90
2023/06/25 02:54:20;;;;;;;0.00;0.00;;;;;;;16.46;nan;100925.31;4971520;28;20197;-90
2023/06/25 02:56:46;;;;;;;0.10;0.10;;;;;;;16.51;nan;100918.81;4968840;28;20194;-90
2023/06/25 02:59:12;;;;;;;0.00;0.00;;;;;;;16.42;nan;100918.06;4979218;28;20213;-90
2023/06/25 03:01:37;;;;;;;0.00;0.00;;;;;;;16.54;nan;100921.69;4971631;28;20213;-89
2023/06/25 03:04:03;;;;;;;0.00;0.00;;;;;;;16.47;nan;100915.09;4971781;28;20323;-89
2023/06/25 03:06:28;;;;;;;0.10;0.10;;;;;;;16.36;nan;100923.00;4971565;28;20190;-90
2023/06/25 03:09:02;;;;;;;1.50;0.87;;;;;;;16.35;nan;100924.97;4970759;28;20264;-89
2023/06/25 03:11:28;;;;;;;0.20;0.20;;;;;;;16.36;nan;100915.53;4971624;28;20173;-89
2023/06/25 03:13:53;;;;;;;0.00;0.00;;;;;;;16.39;nan;100921.50;4971535;28;20255;-91
2023/06/25 03:16:21;;;;;;;0.10;0.10;;;;;;;16.39;nan;100922.31;4972465;28;20225;-90
2023/06/25 03:18:47;;;;;;;0.10;0.10;;;;;;;16.50;nan;100915.25;4974614;28;20550;-90
2023/06/25 03:21:12;;;;;;;0.00;0.00;;;;;;;16.50;nan;100919.94;4971444;28;20261;-90
2023/06/25 03:23:38;;;;;;;0.00;0.00;;;;;;;16.63;nan;100919.63;4970620;28;20190;-90
2023/06/25 03:26:03;;;;;;;0.40;0.40;;;;;;;16.66;nan;100916.22;4974981;28;20182;-90
2023/06/25 03:28:29;;;;;;;0.07;0.07;;;;;;;16.60;nan;100909.28;4971249;28;20318;-90
2023/06/25 03:30:54;;;;;;;0.47;0.30;;;;;;;16.59;nan;100907.66;4972174;28;20656;-90
2023/06/25 03:33:25;;;;;;;0.00;0.00;;;;;;;16.66;nan;100913.44;4974844;28;20276;-89
2023/06/25 03:35:51;;;;;;;0.00;0.00;;;;;;;16.73;nan;100909.34;4974678;28;20181;-90
2023/06/25 03:38:16;;;;;;;0.73;0.73;;;;;;;16.73;nan;100906.59;4971679;28;20194;-91
2023/06/25 03:40:42;;;;;;;0.00;0.00;;;;;;;16.71;nan;100912.44;4978270;28;20324;-90
2023/06/25 03:43:07;;;;;;;0.00;0.00;;;;;;;16.62;nan;100911.69;4974457;28;20197;-90
2023/06/25 03:45:35;;;;;;;0.00;0.00;;;;;;;16.67;nan;100903.25;4971122;28;20684;-91
2023/06/25 03:48:05;;;;;;;0.00;0.00;;;;;;;16.76;nan;100898.41;4972822;28;20225;-90
2023/06/25 03:50:31;;;;;;;0.87;0.87;;;;;;;16.88;nan;100897.63;4990300;28;20198;-90
2023/06/25 03:52:56;;;;;;;0.00;0.00;;;;;;;16.97;nan;100905.84;4990794;28;20672;-90
2023/06/25 03:55:25;;;;;;;0.00;0.00;;;;;;;17.09;nan;100901.13;4974599;28;20583;-90
2023/06/25 03:57:50;;;;;;;0.00;0.00;;;;;;;17.09;nan;100909.41;4974250;28;20190;-90
2023/06/25 04:00:18;;;;;;;0.00;0.00;;;;;;;17.18;nan;100910.09;4974163;28;20212;-90
2023/06/25 04:02:44;;;;;;;0.00;0.00;;;;;;;17.25;nan;100902.06;4970989;28;20245;-90
2023/06/25 04:05:09;;;;;;;0.00;0.00;;;;;;;17.31;nan;100899.84;4989889;28;20198;-90
2023/06/25 04:07:35;;;;;;;0.00;0.00;;;;;;;17.34;nan;100901.13;4974350;28;20677;-90
2023/06/25 04:10:00;;;;;;;0.00;0.00;;;;;;;17.38;nan;100899.28;4992168;23;20778;-88
2023/06/25 04:12:25;;;;;;;0.00;0.00;;;;;;;17.32;nan;100897.91;4954818;29;20182;-89
2023/06/25 04:14:52;;;;;;;0.00;0.00;;;;;;;17.43;nan;100897.09;4954921;29;20222;-88
2023/06/25 04:17:17;;;;;;;0.00;0.00;;;;;;;17.52;nan;100900.56;4954581;29;20269;-89
2023/06/25 04:19:43;;;;;;;0.20;0.20;;;;;;;17.57;nan;100901.47;4979004;28;20302;-89
2023/06/25 04:22:08;;;;;;;0.00;0.00;;;;;;;17.37;nan;100900.44;4990218;28;20205;-89
2023/06/25 04:24:33;;;;;;;0.00;0.00;;;;;;;17.25;nan;100891.00;4990124;28;20186;-89
2023/06/25 04:26:59;;;;;;;0.00;0.00;;;;;;;17.29;nan;100890.31;4989911;28;20280;-89
2023/06/25 04:29:24;;;;;;;0.00;0.00;;;;;;;17.43;nan;100897.09;4989217;28;20301;-90
2023/06/25 04:31:49;;;;;;;0.10;0.10;;;;;;;17.38;nan;100891.81;4989647;28;20174;-89
2023/06/25 04:34:15;;;;;;;0.00;0.00;;;;;;;17.35;nan;100899.97;4989871;28;20797;-90
2023/06/25 04:36:40;;;;;;;0.00;0.00;;;;;;;17.29;nan;100893.06;4978017;28;20193;-89
2023/06/25 04:39:06;;;;;;;0.00;0.00;;;;;;;17.35;nan;100900.78;4989352;28;20745;-89
2023/06/25 04:41:31;;;;;;;0.53;0.53;;;;;;;17.49;nan;100901.22;4974701;28;20201;-89
2023/06/25 04:43:56;;;;;;;0.10;0.10;;;;;;;17.51;nan;100892.63;4974684;28;20182;-89
2023/06/25 04:46:21;;;;;;;0.00;0.00;;;;;;;17.63;nan;100898.09;4973742;28;20205;-89
2023/06/25 04:48:47;;;;;;;0.00;0.00;;;;;;;17.61;nan;100899.59;4973348;28;20182;-90
2023/06/25 04:51:13;;;;;;;0.00;0.00;;;;;;;17.71;nan;100897.22;4973581;28;20213;-89
2023/06/25 04:53:38;;;;;;;0.00;0.00;;;;;;;17.77;nan;100890.28;4973394;28;20586;-89
2023/06/25 04:56:04;;;;;;;0.00;0.00;;;;;;;17.92;nan;100890.69;4989523;28;20186;-90
2023/06/25 04:58:29;;;;;;;0.00;0.00;;;;;;;18.12;nan;100889.72;4989191;28;20196;-91
2023/06/25 05:00:54;;;;;;;0.20;0.20;;;;;;;18.09;nan;100885.72;4974152;28;20208;-89
2023/06/25 05:03:20;;;;;;;0.00;0.00;;;;;;;18.19;nan;100892.69;4974236;28;20561;-89
2023/06/25 05:05:45;;;;;;;0.00;0.00;;;;;;;18.35;nan;100888.00;4974380;28;20184;-89
2023/06/25 05:08:10;;;;;;;1.13;1.13;;;;;;;18.30;nan;100888.25;4989407;28;20185;-89
2023/06/25 05:10:36;;;;;;;0.00;0.00;;;;;;;18.30;nan;100884.69;4972529;28;20213;-89
2023/06/25 05:13:02;;;;;;;0.00;0.00;;;;;;;18.40;nan;100890.53;4974573;28;20188;-89
2023/06/25 05:15:28;;;;;;;0.00;0.00;;;;;;;18.52;nan;100888.88;4989260;28;20205;-89
2023/06/25 05:17:53;;;;;;;0.00;0.00;;;;;;;18.61;nan;100883.94;4988940;28;20220;-89
2023/06/25 05:20:18;;;;;;;0.00;0.00;;;;;;;18.76;nan;100888.72;4964497;28;20217;-89
2023/06/25 05:22:43;;;;;;;0.00;0.00;;;;;;;18.86;nan;100888.22;4972850;28;20277;-89
2023/06/25 05:25:09;;;;;;;0.00;0.00;;;;;;;18.97;nan;100885.72;4988884;28;20671;-89
2023/06/25 05:27:34;;;;;;;0.00;0.00;;;;;;;19.10;nan;100889.22;4988849;28;20233;-88
2023/06/25 05:29:59;;;;;;;0.00;0.00;;;;;;;19.29;nan;100892.84;4973417;28;20751;-89
2023/06/25 05:32:25;;;;;;;0.00;0.00;;;;;;;19.39;nan;100882.38;4988889;28;20185;-88
2023/06/25 05:34:50;;;;;;;0.00;0.00;;;;;;;19.51;nan;100876.72;4988879;28;20181;-89
2023/06/25 05:37:15;;;;;;;0.00;0.00;;;;;;;19.57;nan;100886.41;4972558;28;20268;-89
2023/06/25 05:39:40;;;;;;;0.00;0.00;;;;;;;19.59;nan;100878.53;4987604;28;20213;-89
2023/06/25 05:42:06;;;;;;;2.53;1.07;;;;;;;19.71;nan;100880.38;4988497;28;20555;-89
2023/06/25 05:44:31;;;;;;;0.40;0.40;;;;;;;19.82;nan;100885.00;4972462;28;20216;-90
2023/06/25 05:46:56;;;;;;;0.00;0.00;;;;;;;19.92;nan;100878.84;4974309;28;20688;-89
2023/06/25 05:49:22;;;;;;;0.00;0.00;;;;;;;19.96;nan;100870.59;4988555;28;20208;-89
2023/06/25 05:51:47;;;;;;;0.47;0.47;;;;;;;20.00;nan;100879.81;4972309;28;20193;-89
2023/06/25 05:54:13;;;;;;;0.00;0.00;;;;;;;20.08;nan;100870.44;4973367;28;20217;-89
2023/06/25 05:56:38;;;;;;;0.00;0.00;;;;;;;20.15;nan;100872.59;4988504;28;20190;-89
2023/06/25 05:59:03;;;;;;;0.00;0.00;;;;;;;20.19;nan;100876.22;4973182;28;20278;-89
2023/06/25 06:01:29;;;;;;;0.00;0.00;;;;;;;20.30;nan;100876.44;4958584;28;20245;-89
2023/06/25 06:03:54;;;;;;;0.00;0.00;;;;;;;20.43;nan;100877.91;4969734;28;20189;-89
2023/06/25 06:06:19;;;;;;;0.00;0.00;;;;;;;20.57;nan;100875.41;4968881;28;20626;-89
2023/06/25 06:08:48;;;;;;;0.00;0.00;;;;;;;20.67;nan;100883.13;4968175;28;20686;-90
2023/06/25 06:11:15;;;;;;;0.00;0.00;;;;;;;20.76;nan;100885.66;4961139;28;20293;-89
2023/06/25 06:13:43;;;;;;;0.00;0.00;;;;;;;20.82;nan;100883.38;4969152;28;20396;-90
2023/06/25 06:16:09;;;;;;;0.10;0.10;;;;;;;20.87;nan;100875.56;4972314;28;20185;-89
2023/06/25 06:18:34;;;;;;;0.00;0.00;;;;;;;20.97;nan;100869.34;4972109;28;20670;-89
2023/06/25 06:20:59;;;;;;;0.00;0.00;;;;;;;21.01;nan;100880.53;4988695;28;20223;-89
2023/06/25 06:23:25;;;;;;;0.00;0.00;;;;;;;21.03;nan;100873.44;4973010;28;20562;-89
2023/06/25 06:25:51;;;;;;;0.00;0.00;;;;;;;21.21;nan;100875.69;4972764;28;20652;-89
2023/06/25 06:28:19;;;;;;;0.00;0.00;;;;;;;21.13;nan;100872.00;4972530;28;20640;-89
2023/06/25 06:30:45;;;;;;;0.00;0.00;;;;;;;21.22;nan;100863.41;4988078;28;20203;-91
2023/06/25 06:33:10;;;;;;;0.03;0.03;;;;;;;21.34;nan;100877.94;4971894;28;20540;-89
2023/06/25 06:35:35;;;;;;;0.30;0.30;;;;;;;21.49;nan;100872.56;4988332;28;20186;-90
2023/06/25 06:38:01;;;;;;;0.00;0.00;;;;;;;21.56;nan;100873.50;4987974;28;20627;-89
2023/06/25 06:40:29;;;;;;;0.53;0.53;;;;;;;21.63;nan;100872.78;4958683;28;20765;-89
2023/06/25 06:42:54;;;;;;;0.23;0.23;;;;;;;21.72;nan;100866.97;4985526;28;20202;-90
2023/06/25 06:45:19;;;;;;;0.63;0.63;;;;;;;21.89;nan;100869.16;4971895;28;20670;-91
2023/06/25 06:47:45;;;;;;;0.00;0.00;;;;;;;21.98;nan;100873.25;4988053;28;20682;-86
2023/06/25 06:50:10;;;;;;;0.37;0.33;;;;;;;22.00;nan;100870.09;4971236;28;20800;-90
2023/06/25 06:52:36;;;;;;;0.00;0.00;;;;;;;22.16;nan;100869.94;4979822;28;20194;-89
2023/06/25 06:55:04;;;;;;;0.00;0.00;;;;;;;22.21;nan;100864.81;4975400;28;20210;-89
2023/06/25 06:57:29;;;;;;;0.00;0.00;;;;;;;22.32;nan;100859.38;4975491;28;20210;-89
2023/06/25 06:59:55;;;;;;;0.53;0.53;;;;;;;22.39;nan;100867.78;4991311;28;20737;-90
2023/06/25 07:02:20;;;;;;;0.87;0.87;;;;;;;22.43;nan;100860.28;4991594;28;20554;-89
2023/06/25 07:04:45;;;;;;;0.37;0.37;;;;;;;22.60;nan;100861.66;4978988;28;20238;-89
2023/06/25 07:07:10;;;;;;;0.23;0.10;;;;;;;22.58;nan;100857.66;4975261;28;20679;-90
2023/06/25 07:09:36;;;;;;;0.00;0.00;;;;;;;22.74;nan;100866.56;4976085;28;20216;-89
2023/06/25 07:12:01;;;;;;;0.70;0.70;;;;;;;22.80;nan;100848.31;4976422;28;20216;-90
2023/06/25 07:14:26;;;;;;;0.00;0.00;;;;;;;23.11;nan;100847.78;4981318;28;20260;-90
2023/06/25 07:16:52;;;;;;;0.90;0.23;;;;;;;23.19;nan;100848.66;4974921;28;20185;-89
2023/06/25 07:19:17;;;;;;;0.00;0.00;;;;;;;23.33;nan;100857.13;4974867;28;20244;-90
2023/06/25 07:21:42;;;;;;;0.20;0.20;;;;;;;23.44;nan;100851.63;4991137;28;20684;-89
2023/06/25 07:24:08;;;;;;;0.00;0.00;;;;;;;23.48;nan;100830.13;4974888;28;20182;-90
2023/06/25 07:26:33;;;;;;;0.00;0.00;;;;;;;23.55;nan;100841.28;4982977;28;20220;-90
2023/06/25 07:28:58;;;;;;;0.10;0.10;;;;;;;23.56;nan;100823.38;4990633;28;20264;-90
2023/06/25 07:31:24;;;;;;;0.00;0.00;;;;;;;23.62;nan;100823.84;4975184;28;20259;-89
2023/06/25 07:33:50;;;;;;;0.00;0.00;;;;;;;23.71;nan;100821.47;4974747;28;20190;-90
2023/06/25 07:36:16;;;;;;;4.03;0.53;;;;;;;23.78;nan;100823.53;4976028;28;20196;-90
2023/06/25 07:38:42;;;;;;;0.40;0.40;;;;;;;23.92;nan;100827.16;4975681;28;20189;-89
2023/06/25 07:41:07;;;;;;;0.90;0.90;;;;;;;23.90;nan;100821.19;4990676;28;20243;-89
2023/06/25 07:43:32;;;;;;;0.30;0.30;;;;;;;24.07;nan;100827.22;4990731;28;20236;-89
2023/06/25 07:45:58;;;;;;;0.00;0.00;;;;;;;24.21;nan;100810.50;4991051;28;20182;-89
2023/06/25 07:48:23;;;;;;;0.00;0.00;;;;;;;24.38;nan;100823.72;4974448;28;20222;-89
2023/06/25 07:50:50;;;;;;;0.00;0.00;;;;;;;24.44;nan;100818.53;4974458;28;20205;-90
2023/06/25 07:53:15;;;;;;;1.33;1.13;;;;;;;24.53;nan;100824.56;4971590;28;20311;-90
2023/06/25 07:55:41;;;;;;;0.40;0.40;;;;;;;24.57;nan;100808.59;4966912;28;20698;-89
2023/06/25 07:58:07;;;;;;;0.20;0.20;;;;;;;24.61;nan;100813.00;4989558;28;20201;-91
2023/06/25 08:00:33;;;;;;;0.00;0.00;;;;;;;24.65;nan;100809.41;4990545;28;20637;-90
2023/06/25 08:02:59;;;;;;;0.10;0.10;;;;;;;24.64;nan;100814.19;4989336;28;20186;-89
2023/06/25 08:05:24;;;;;;;0.00;0.00;;;;;;;24.74;nan;100793.03;4974520;28;20231;-90
2023/06/25 08:07:49;;;;;;;0.23;0.23;;;;;;;24.89;nan;100798.22;4974082;28;20190;-89
2023/06/25 08:10:15;;;;;;;0.00;0.00;;;;;;;24.97;nan;100796.22;4990260;28;20229;-90
2023/06/25 08:12:40;;;;;;;0.00;0.00;;;;;;;25.04;nan;100798.25;4986532;28;20216;-90
2023/06/25 08:15:06;;;;;;;0.00;0.00;;;;;;;25.21;nan;100798.22;4974084;28;20186;-90
2023/06/25 08:17:31;;;;;;;0.00;0.00;;;;;;;25.09;nan;100789.44;4974069;28;20282;-89
2023/06/25 08:19:56;;;;;;;0.00;0.00;;;;;;;25.15;nan;100802.59;4974947;28;20248;-90
2023/06/25 08:22:21;;;;;;;0.00;0.00;;;;;;;25.26;nan;100794.19;4973974;28;20253;-92
2023/06/25 08:24:47;;;;;;;0.20;0.20;;;;;;;25.41;nan;100803.34;4990178;28;20181;-89
2023/06/25 08:27:12;;;;;;;0.87;0.43;;;;;;;25.51;nan;100796.94;4990183;28;20606;-90
2023/06/25 08:29:37;;;;;;;4.07;1.00;;;;;;;25.43;nan;100782.16;4973453;28;20198;-89
2023/06/25 08:32:03;;;;;;;1.40;1.30;;;;;;;25.46;nan;100783.34;4974852;28;20212;-90
2023/06/25 08:34:28;;;;;;;0.00;0.00;;;;;;;25.29;nan;100768.22;4990344;28;20182;-90
2023/06/25 08:36:55;;;;;;;0.07;0.07;;;;;;;25.35;nan;100777.00;4973569;28;20182;-89
2023/06/25 08:39:20;;;;;;;0.67;0.67;;;;;;;25.54;nan;100789.72;4973322;28;20209;-89
2023/06/25 08:41:45;;;;;;;0.10;0.10;;;;;;;25.67;nan;100776.88;4974765;28;20178;-90
2023/06/25 08:44:11;;;;;;;0.67;0.67;;;;;;;25.69;nan;100774.50;4973500;28;20197;-90
2023/06/25 08:46:37;;;;;;;0.13;0.13;;;;;;;25.69;nan;100777.28;4973752;28;20558;-90
2023/06/25 08:49:05;;;;;;;0.60;0.60;;;;;;;25.67;nan;100766.47;4971864;28;20213;-90
2023/06/25 08:51:30;;;;;;;0.47;0.47;;;;;;;25.64;nan;100764.50;4989490;28;20255;-89
2023/06/25 08:53:57;;;;;;;0.00;0.00;;;;;;;25.66;nan;100764.09;4973263;28;20220;-90
2023/06/25 08:56:22;;;;;;;0.03;0.03;;;;;;;25.85;nan;100788.81;4973441;28;20237;-89
2023/06/25 08:58:47;;;;;;;0.17;0.17;;;;;;;25.97;nan;100776.34;4972912;28;20615;-90
2023/06/25 09:01:13;;;;;;;0.77;0.77;;;;;;;26.06;nan;100760.72;4973288;28;20362;-90
2023/06/25 09:03:41;;;;;;;0.97;0.97;;;;;;;26.03;nan;100758.69;4973437;28;20208;-90
2023/06/25 09:06:13;;;;;;;0.17;0.17;;;;;;;25.92;nan;100752.41;4973520;28;20281;-90
2023/06/25 09:09:05;;;;;;;0.00;0.00;;;;;;;25.85;nan;100741.22;4977772;28;20193;-90
2023/06/25 09:12:09;;;;;;;0.00;0.00;;;;;;;26.05;nan;100745.13;4980429;28;20225;-90
2023/06/25 09:14:35;;;;;;;0.10;0.10;;;;;;;26.09;nan;100745.88;4983920;28;20192;-89
2023/06/25 09:17:02;;;;;;;0.13;0.13;;;;;;;26.16;nan;100733.81;4980994;28;20185;-90
2023/06/25 09:19:27;;;;;;;0.80;0.80;;;;;;;26.18;nan;100742.59;4988805;28;20268;-90
2023/06/25 09:21:52;;;;;;;1.50;1.40;;;;;;;26.17;nan;100735.41;4973135;28;20210;-90
2023/06/25 09:24:19;;;;;;;1.57;1.47;;;;;;;26.15;nan;100723.81;4989159;28;20564;-89
2023/06/25 09:26:45;;;;;;;0.00;0.00;;;;;;;26.34;nan;100731.69;4974220;28;20660;-90
2023/06/25 09:29:12;;;;;;;0.73;0.73;;;;;;;26.34;nan;100742.91;4972738;28;20216;-91
2023/06/25 09:31:47;;;;;;;0.00;0.00;;;;;;;26.39;nan;100736.09;4988817;28;20220;-90
2023/06/25 09:34:17;;;;;;;1.70;1.60;;;;;;;26.46;nan;100732.41;4972604;28;20198;-89
2023/06/25 09:36:44;;;;;;;1.33;1.23;;;;;;;26.58;nan;100738.31;4972675;28;20189;-90
2023/06/25 09:39:11;;;;;;;0.30;0.30;;;;;;;26.72;nan;100722.59;4972617;28;20205;-90
2023/06/25 09:41:41;;;;;;;0.17;0.17;;;;;;;26.80;nan;100721.31;4977469;28;20565;-90
2023/06/25 09:44:07;;;;;;;0.10;0.10;;;;;;;26.92;nan;100720.81;4971732;28;20186;-90
2023/06/25 09:46:34;;;;;;;0.00;0.00;;;;;;;26.74;nan;100709.75;4988537;28;20181;-91
2023/06/25 09:49:03;;;;;;;0.47;0.47;;;;;;;26.49;nan;100698.00;4971917;28;20206;-89
2023/06/25 09:51:44;;;;;;;1.40;1.33;;;;;;;26.32;nan;100708.88;4980635;28;20207;-90
2023/06/25 09:54:12;;;;;;;0.63;0.63;;;;;;;26.19;nan;100712.63;4971996;28;20507;-89
2023/06/25 09:56:39;;;;;;;0.70;0.70;;;;;;;26.32;nan;100717.28;4972394;28;20181;-89
2023/06/25 09:59:05;;;;;;;1.60;1.50;;;;;;;26.41;nan;100710.47;4971784;28;20671;-89
2023/06/25 10:01:30;;;;;;;0.17;0.17;;;;;;;26.24;nan;100698.97;4972167;28;20174;-90
2023/06/25 10:03:56;;;;;;;2.10;2.00;;;;;;;26.50;nan;100705.97;4972219;28;20557;-90
2023/06/25 10:06:21;;;;;;;0.10;0.10;;;;;;;26.85;nan;100702.03;4973385;28;20185;-90
2023/06/25 10:08:50;;;;;;;1.17;1.17;;;;;;;26.94;nan;100713.56;4975324;28;20652;-89
2023/06/25 10:11:51;;;;;;;0.30;0.30;;;;;;;27.07;nan;100705.44;4971848;23;20256;-90
2023/06/25 10:14:52;;;;;;;0.87;0.87;;;;;;;27.46;nan;100710.56;4906329;29;20199;-90
2023/06/25 10:18:20;;;;;;;7.47;2.13;;;;;;;27.74;nan;100708.63;4946011;28;20201;-91
2023/06/25 10:21:55;;;;;;;1.23;1.17;;;;;;;27.01;nan;100687.47;4920900;29;20302;-90
2023/06/25 10:24:36;;;;;;;0.00;0.00;;;;;;;27.43;nan;100703.00;4822442;29;20289;-90
2023/06/25 10:27:01;;;;;;;0.40;0.40;;;;;;;27.84;nan;100686.00;4934988;29;20191;-90
2023/06/25 10:29:27;;;;;;;0.30;0.30;;;;;;;28.00;nan;100687.38;4930780;29;20224;-90
2023/06/25 10:31:52;;;;;;;0.10;0.10;;;;;;;27.97;nan;100671.38;4922532;29;20242;-91
2023/06/25 10:34:24;;;;;;;2.33;2.13;;;;;;;27.37;nan;100667.41;4954847;28;20537;-90
2023/06/25 10:36:59;;;;;;;0.00;0.00;;;;;;;27.13;nan;100663.69;4954854;28;20573;-91
2023/06/25 10:39:35;;;;;;;0.67;0.67;;;;;;;26.93;nan;100666.31;4954920;28;20246;-90
2023/06/25 10:42:04;;;;;;;0.00;0.00;;;;;;;26.99;nan;100673.81;4924535;29;20187;-90
2023/06/25 10:44:52;;;;;;;0.10;0.10;;;;;;;27.20;nan;100684.03;4936567;29;20272;-90
2023/06/25 10:47:21;;;;;;;3.13;0.83;;;;;;;27.13;nan;100667.28;4911608;29;20201;-90
2023/06/25 10:49:55;;;;;;;0.00;0.00;;;;;;;27.31;nan;100663.44;4941588;29;20219;-91
2023/06/25 10:52:28;;;;;;;0.00;0.00;;;;;;;27.53;nan;100671.19;4944183;28;20194;-92
2023/06/25 10:54:55;;;;;;;1.43;1.33;;;;;;;27.27;nan;100664.31;4941715;29;20242;-90
2023/06/25 10:57:30;;;;;;;1.93;1.83;;;;;;;26.93;nan;100671.91;4938804;29;20184;-89
2023/06/25 10:59:55;;;;;;;0.23;0.23;;;;;;;26.82;nan;100672.03;4938597;29;20205;-90
2023/06/25 11:02:25;;;;;;;0.00;0.00;;;;;;;27.08;nan;100666.97;4923115;29;20582;-90
2023/06/25 11:04:53;;;;;;;0.40;0.40;;;;;;;27.48;nan;100651.97;4922622;29;20210;-90
2023/06/25 11:07:26;;;;;;;0.37;0.37;;;;;;;27.15;nan;100647.22;4955572;28;20325;-91
2023/06/25 11:09:58;;;;;;;0.00;0.00;;;;;;;26.91;nan;100647.09;4939101;29;20761;-91
2023/06/25 11:12:24;;;;;;;0.30;0.30;;;;;;;27.23;nan;100657.16;4938813;29;20571;-91
2023/06/25 11:14:50;;;;;;;0.10;0.10;;;;;;;27.26;nan;100662.72;4923661;29;20191;-91
2023/06/25 11:17:16;;;;;;;1.40;1.33;;;;;;;27.66;nan;100643.38;4940149;29;20184;-91
2023/06/25 11:19:49;;;;;;;0.20;0.20;;;;;;;27.79;nan;100626.72;4938666;29;20207;-91
2023/06/25 11:22:17;;;;;;;0.00;0.00;;;;;;;27.87;nan;100625.38;4938500;29;20198;-90
2023/06/25 11:24:59;;;;;;;0.90;0.70;;;;;;;28.19;nan;100630.47;4954584;28;20219;-90
2023/06/25 11:27:29;;;;;;;1.60;0.73;;;;;;;28.03;nan;100624.72;4932206;29;20188;-90
2023/06/25 11:29:54;;;;;;;0.50;0.50;;;;;;;28.10;nan;100630.22;4955297;28;20750;-90
2023/06/25 11:32:27;;;;;;;0.17;0.17;;;;;;;28.17;nan;100608.41;4942298;29;20281;-90
2023/06/25 11:35:08;;;;;;;2.00;1.83;;;;;;;27.97;nan;100610.38;4940928;29;20650;-90
2023/06/25 11:37:51;;;;;;;1.97;1.87;;;;;;;28.32;nan;100614.59;4920371;29;20207;-90
2023/06/25 11:40:25;;;;;;;1.47;1.20;;;;;;;28.27;nan;100609.50;4941337;29;20672;-90
2023/06/25 11:42:51;;;;;;;1.43;1.20;;;;;;;28.42;nan;100613.63;4941795;29;20280;-90
2023/06/25 11:45:20;;;;;;;0.50;0.50;;;;;;;28.59;nan;100608.09;4925758;29;20267;-90